Listerhav — ZDKC7 — position and weather

sailwx.info

Track history (hours):
 
Tides and Currents Weather Stations Pressure Air Temp Water Temp Dewpoint Dewpoint Depression Visibility Wind Speed Wind Dir Waves Ship Positions

Listerhav

Last reported at 2014-Oct-30 16:23 UTC. Time now 2014-Oct-30 17:38 UTC.
Position N 55°08' E 013°04'.

Length 88 m; draft 4.3 m.

Type: Cargo ship. MMSI: 236591000.

Date/timePositionNaut miles runAvg speedWind from/ knotsBaromVisibWave heightAir tempDewpointWater temp
2014-Oct-30 16:23N 55°08' E 013°04'8 9.6
2014-Oct-30 15:33N 55°13' E 012°54'9 9.5
2014-Oct-30 14:33N 55°18' E 012°39'9 8.8
2014-Oct-30 13:33N 55°27' E 012°40'9 9.2
2014-Oct-30 12:33N 55°36' E 012°42'6 5.8
2014-Oct-30 11:33N 55°41' E 012°38'0 0.0
2014-Oct-30 10:33N 55°41' E 012°38'0 0.0
2014-Oct-30 09:32N 55°41' E 012°38'0 0.0
2014-Oct-30 08:32N 55°41' E 012°38'0 0.0
2014-Oct-30 07:32N 55°41' E 012°38'0 0.0
2014-Oct-30 06:32N 55°41' E 012°38'0 0.0
2014-Oct-30 05:32N 55°41' E 012°38'0 0.0
2014-Oct-30 04:32N 55°41' E 012°38'0 0.0
2014-Oct-30 03:32N 55°41' E 012°38'0 0.0
2014-Oct-30 02:32N 55°41' E 012°38'0 0.0
2014-Oct-30 01:32N 55°41' E 012°38'0 0.0
2014-Oct-30 00:32N 55°41' E 012°38'0 0.0
2014-Oct-29 23:32N 55°41' E 012°38'0 0.0
2014-Oct-29 22:32N 55°41' E 012°38'0 0.0
2014-Oct-29 21:32N 55°41' E 012°38'0 0.0
2014-Oct-29 20:32N 55°41' E 012°38'0 0.0
2014-Oct-29 19:32N 55°41' E 012°38'0 0.0
2014-Oct-29 18:32N 55°41' E 012°38'0 0.0
2014-Oct-29 17:32N 55°41' E 012°38'0 0.0
2014-Oct-29 16:32N 55°41' E 012°38'0 0.0
2014-Oct-29 15:32N 55°41' E 012°38'0 0.0
2014-Oct-29 14:32N 55°41' E 012°38'0 0.0
2014-Oct-29 13:29N 55°41' E 012°38'0 0.0
2014-Oct-29 12:32N 55°41' E 012°38'0 0.0
2014-Oct-29 11:33N 55°41' E 012°38'4 3.9
2014-Oct-29 10:34N 55°38' E 012°42'7 6.7
2014-Oct-29 09:33N 55°31' E 012°43'8 8.1
2014-Oct-29 08:34N 55°23' E 012°42'8 7.1
2014-Oct-29 07:27N 55°17' E 012°49'8 8.1
2014-Oct-29 06:31N 55°16' E 013°02'8 8.3
2014-Oct-29 05:33N 55°15' E 013°17'9 8.2
2014-Oct-29 04:29N 55°15' E 013°32'7 7.9
2014-Oct-29 03:33N 55°14' E 013°44'8 7.5
2014-Oct-29 02:33N 55°14' E 013°58'8 7.6
2014-Oct-29 01:33N 55°13' E 014°11'7 6.9
2014-Oct-29 00:33N 55°17' E 014°21'7 7.3
2014-Oct-28 23:34N 55°23' E 014°29'7 7.3
2014-Oct-28 22:34N 55°28' E 014°39'7 7.3
2014-Oct-28 21:33N 55°31' E 014°50'8 7.7
2014-Oct-28 20:34N 55°35' E 015°02'8 7.9
2014-Oct-28 19:33N 55°39' E 015°14'25 7.9
2014-Oct-28 16:25N 55°52' E 015°52'7 7.6
2014-Oct-28 15:33N 55°55' E 016°02'8 7.7
2014-Oct-28 14:33N 55°59' E 016°14'8 7.7
2014-Oct-28 13:33N 56°03' E 016°26'76 7.4
2014-Oct-28 03:23N 56°48' E 018°15'6 7.3
2014-Oct-28 02:33N 56°52' E 018°24'  
2014-Oct-24 05:30N 55°55' E 016°22'48 9.4
2014-Oct-24 00:28N 55°32' E 015°08'9 9.6
2014-Oct-23 23:33N 55°28' E 014°54'9 9.4
2014-Oct-23 22:33N 55°23' E 014°40'9 9.4
2014-Oct-23 21:33N 55°16' E 014°28'9 8.9
2014-Oct-23 20:33N 55°12' E 014°15'9 9.2
2014-Oct-23 19:33N 55°11' E 013°59'9 9.0
2014-Oct-23 18:33N 55°12' E 013°43'22 9.0
2014-Oct-23 16:08N 55°13' E 013°05'5 8.8
2014-Oct-23 15:33N 55°14' E 012°56'9 8.7
2014-Oct-23 14:33N 55°17' E 012°42'7 7.2
2014-Oct-23 13:33N 55°24' E 012°39'8 8.3
2014-Oct-23 12:33N 55°32' E 012°42'7 7.2
2014-Oct-23 11:33N 55°39' E 012°41'8 7.9
2014-Oct-23 10:33N 55°47' E 012°41'8 8.0
2014-Oct-23 09:33N 55°55' E 012°39'8 7.8
2014-Oct-23 08:33N 56°03' E 012°38'8 8.1
2014-Oct-23 07:33N 56°08' E 012°27'9 8.8
2014-Oct-23 06:33N 56°12' E 012°13'  
Track history (hours):
 
Tides and Currents Weather Stations Pressure Air Temp Water Temp Dewpoint Dewpoint Depression Visibility Wind Speed Wind Dir Waves Ship Positions

Listerhav

Last reported at 2014-Oct-30 16:23 UTC. Time now 2014-Oct-30 17:38 UTC.
Position N 55°08' E 013°04'.

Length 88 m; draft 4.3 m.

Type: Cargo ship. MMSI: 236591000.

Date/timePositionNaut miles runAvg speedWind from/ knotsBaromVisibWave heightAir tempDewpointWater temp
2014-Oct-30 16:23N 55°08' E 013°04'8 9.6
2014-Oct-30 15:33N 55°13' E 012°54'9 9.5
2014-Oct-30 14:33N 55°18' E 012°39'9 8.8
2014-Oct-30 13:33N 55°27' E 012°40'9 9.2
2014-Oct-30 12:33N 55°36' E 012°42'6 5.8
2014-Oct-30 11:33N 55°41' E 012°38'0 0.0
2014-Oct-30 10:33N 55°41' E 012°38'0 0.0
2014-Oct-30 09:32N 55°41' E 012°38'0 0.0
2014-Oct-30 08:32N 55°41' E 012°38'0 0.0
2014-Oct-30 07:32N 55°41' E 012°38'0 0.0
2014-Oct-30 06:32N 55°41' E 012°38'0 0.0
2014-Oct-30 05:32N 55°41' E 012°38'0 0.0
2014-Oct-30 04:32N 55°41' E 012°38'0 0.0
2014-Oct-30 03:32N 55°41' E 012°38'0 0.0
2014-Oct-30 02:32N 55°41' E 012°38'0 0.0
2014-Oct-30 01:32N 55°41' E 012°38'0 0.0
2014-Oct-30 00:32N 55°41' E 012°38'0 0.0
2014-Oct-29 23:32N 55°41' E 012°38'0 0.0
2014-Oct-29 22:32N 55°41' E 012°38'0 0.0
2014-Oct-29 21:32N 55°41' E 012°38'0 0.0
2014-Oct-29 20:32N 55°41' E 012°38'0 0.0
2014-Oct-29 19:32N 55°41' E 012°38'0 0.0
2014-Oct-29 18:32N 55°41' E 012°38'0 0.0
2014-Oct-29 17:32N 55°41' E 012°38'0 0.0
2014-Oct-29 16:32N 55°41' E 012°38'0 0.0
2014-Oct-29 15:32N 55°41' E 012°38'0 0.0
2014-Oct-29 14:32N 55°41' E 012°38'0 0.0
2014-Oct-29 13:29N 55°41' E 012°38'0 0.0
2014-Oct-29 12:32N 55°41' E 012°38'0 0.0
2014-Oct-29 11:33N 55°41' E 012°38'4 3.9
2014-Oct-29 10:34N 55°38' E 012°42'7 6.7
2014-Oct-29 09:33N 55°31' E 012°43'8 8.1
2014-Oct-29 08:34N 55°23' E 012°42'8 7.1
2014-Oct-29 07:27N 55°17' E 012°49'8 8.1
2014-Oct-29 06:31N 55°16' E 013°02'8 8.3
2014-Oct-29 05:33N 55°15' E 013°17'9 8.2
2014-Oct-29 04:29N 55°15' E 013°32'7 7.9
2014-Oct-29 03:33N 55°14' E 013°44'8 7.5
2014-Oct-29 02:33N 55°14' E 013°58'8 7.6
2014-Oct-29 01:33N 55°13' E 014°11'7 6.9
2014-Oct-29 00:33N 55°17' E 014°21'7 7.3
2014-Oct-28 23:34N 55°23' E 014°29'7 7.3
2014-Oct-28 22:34N 55°28' E 014°39'7 7.3
2014-Oct-28 21:33N 55°31' E 014°50'8 7.7
2014-Oct-28 20:34N 55°35' E 015°02'8 7.9
2014-Oct-28 19:33N 55°39' E 015°14'25 7.9
2014-Oct-28 16:25N 55°52' E 015°52'7 7.6
2014-Oct-28 15:33N 55°55' E 016°02'8 7.7
2014-Oct-28 14:33N 55°59' E 016°14'8 7.7
2014-Oct-28 13:33N 56°03' E 016°26'76 7.4
2014-Oct-28 03:23N 56°48' E 018°15'6 7.3
2014-Oct-28 02:33N 56°52' E 018°24'  
2014-Oct-24 05:30N 55°55' E 016°22'48 9.4
2014-Oct-24 00:28N 55°32' E 015°08'9 9.6
2014-Oct-23 23:33N 55°28' E 014°54'9 9.4
2014-Oct-23 22:33N 55°23' E 014°40'9 9.4
2014-Oct-23 21:33N 55°16' E 014°28'9 8.9
2014-Oct-23 20:33N 55°12' E 014°15'9 9.2
2014-Oct-23 19:33N 55°11' E 013°59'9 9.0
2014-Oct-23 18:33N 55°12' E 013°43'22 9.0
2014-Oct-23 16:08N 55°13' E 013°05'5 8.8
2014-Oct-23 15:33N 55°14' E 012°56'9 8.7
2014-Oct-23 14:33N 55°17' E 012°42'7 7.2
2014-Oct-23 13:33N 55°24' E 012°39'8 8.3
2014-Oct-23 12:33N 55°32' E 012°42'7 7.2
2014-Oct-23 11:33N 55°39' E 012°41'8 7.9
2014-Oct-23 10:33N 55°47' E 012°41'8 8.0
2014-Oct-23 09:33N 55°55' E 012°39'8 7.8
2014-Oct-23 08:33N 56°03' E 012°38'8 8.1
2014-Oct-23 07:33N 56°08' E 012°27'9 8.8
2014-Oct-23 06:33N 56°12' E 012°13'  

Dump ship's entire track history